sensor_id;sensor_type;location;lat;lon;timestamp;temperature;humidity
5086;DHT22;4715;51.660;7.082;2024-03-25T00:01:14;5.90;99.90
5086;DHT22;4715;51.660;7.082;2024-03-25T00:03:39;5.80;99.90
5086;DHT22;4715;51.660;7.082;2024-03-25T00:06:00;5.80;99.90
5086;DHT22;4715;51.660;7.082;2024-03-25T00:08:22;5.90;99.90
5086;DHT22;4715;51.660;7.082;2024-03-25T00:10:43;5.90;99.90
5086;DHT22;4715;51.660;7.082;2024-03-25T00:13:05;5.90;99.90
5086;DHT22;4715;51.660;7.082;2024-03-25T00:15:26;5.90;99.90
5086;DHT22;4715;51.660;7.082;2024-03-25T00:17:48;5.90;99.90
5086;DHT22;4715;51.660;7.082;2024-03-25T00:20:11;5.90;99.90
5086;DHT22;4715;51.660;7.082;2024-03-25T00:22:33;5.90;99.90
5086;DHT22;4715;51.660;7.082;2024-03-25T00:24:54;5.90;99.90
5086;DHT22;4715;51.660;7.082;2024-03-25T00:27:16;5.90;99.90
5086;DHT22;4715;51.660;7.082;2024-03-25T00:29:37;5.90;99.90
5086;DHT22;4715;51.660;7.082;2024-03-25T00:31:59;5.90;99.90
5086;DHT22;4715;51.660;7.082;2024-03-25T00:34:19;5.90;99.90
5086;DHT22;4715;51.660;7.082;2024-03-25T00:36:43;5.90;99.90
5086;DHT22;4715;51.660;7.082;2024-03-25T00:39:04;5.90;99.90
5086;DHT22;4715;51.660;7.082;2024-03-25T00:41:26;5.80;99.90
5086;DHT22;4715;51.660;7.082;2024-03-25T00:43:47;5.80;99.90
5086;DHT22;4715;51.660;7.082;2024-03-25T00:46:09;5.80;99.90
5086;DHT22;4715;51.660;7.082;2024-03-25T00:48:30;5.70;99.90
5086;DHT22;4715;51.660;7.082;2024-03-25T00:50:51;5.70;99.90
5086;DHT22;4715;51.660;7.082;2024-03-25T00:53:14;5.70;99.90
5086;DHT22;4715;51.660;7.082;2024-03-25T00:55:35;5.70;99.90
5086;DHT22;4715;51.660;7.082;2024-03-25T00:57:56;5.80;99.90
5086;DHT22;4715;51.660;7.082;2024-03-25T01:00:18;5.70;99.90
5086;DHT22;4715;51.660;7.082;2024-03-25T01:02:40;5.70;99.90
5086;DHT22;4715;51.660;7.082;2024-03-25T01:05:02;5.70;99.90
5086;DHT22;4715;51.660;7.082;2024-03-25T01:07:23;5.70;99.90
5086;DHT22;4715;51.660;7.082;2024-03-25T01:09:46;5.70;99.90
5086;DHT22;4715;51.660;7.082;2024-03-25T01:12:09;5.70;99.90
5086;DHT22;4715;51.660;7.082;2024-03-25T01:14:30;5.70;99.90
5086;DHT22;4715;51.660;7.082;2024-03-25T01:16:52;5.70;99.90
5086;DHT22;4715;51.660;7.082;2024-03-25T01:19:14;5.70;99.90
5086;DHT22;4715;51.660;7.082;2024-03-25T01:21:35;5.70;99.90
5086;DHT22;4715;51.660;7.082;2024-03-25T01:23:57;5.70;99.90
5086;DHT22;4715;51.660;7.082;2024-03-25T01:26:19;5.60;99.90
5086;DHT22;4715;51.660;7.082;2024-03-25T01:28:41;5.60;99.90
5086;DHT22;4715;51.660;7.082;2024-03-25T01:31:02;5.60;99.90
5086;DHT22;4715;51.660;7.082;2024-03-25T01:33:24;5.60;99.90
5086;DHT22;4715;51.660;7.082;2024-03-25T01:35:45;5.60;99.90
5086;DHT22;4715;51.660;7.082;2024-03-25T01:38:07;5.60;99.90
5086;DHT22;4715;51.660;7.082;2024-03-25T01:40:28;5.60;99.90
5086;DHT22;4715;51.660;7.082;2024-03-25T01:42:57;5.60;99.90
5086;DHT22;4715;51.660;7.082;2024-03-25T01:45:18;5.60;99.90
5086;DHT22;4715;51.660;7.082;2024-03-25T01:47:40;5.60;99.90
5086;DHT22;4715;51.660;7.082;2024-03-25T01:50:01;5.60;99.90
5086;DHT22;4715;51.660;7.082;2024-03-25T01:52:24;5.60;99.90
5086;DHT22;4715;51.660;7.082;2024-03-25T01:54:46;5.50;99.90
5086;DHT22;4715;51.660;7.082;2024-03-25T01:57:09;5.50;99.90
5086;DHT22;4715;51.660;7.082;2024-03-25T01:59:32;5.50;99.90
5086;DHT22;4715;51.660;7.082;2024-03-25T02:01:54;5.50;99.90
5086;DHT22;4715;51.660;7.082;2024-03-25T02:04:16;5.40;99.90
5086;DHT22;4715;51.660;7.082;2024-03-25T02:06:40;5.40;99.90
5086;DHT22;4715;51.660;7.082;2024-03-25T02:09:02;5.40;99.90
5086;DHT22;4715;51.660;7.082;2024-03-25T02:11:25;5.30;99.90
5086;DHT22;4715;51.660;7.082;2024-03-25T02:13:46;5.30;99.90
5086;DHT22;4715;51.660;7.082;2024-03-25T02:16:09;5.30;99.90
5086;DHT22;4715;51.660;7.082;2024-03-25T02:18:31;5.30;99.90
5086;DHT22;4715;51.660;7.082;2024-03-25T02:20:53;5.30;99.90
5086;DHT22;4715;51.660;7.082;2024-03-25T02:23:14;5.20;99.90
5086;DHT22;4715;51.660;7.082;2024-03-25T02:25:38;5.20;99.90
5086;DHT22;4715;51.660;7.082;2024-03-25T02:28:00;5.20;99.90
5086;DHT22;4715;51.660;7.082;2024-03-25T02:30:22;5.20;99.90
5086;DHT22;4715;51.660;7.082;2024-03-25T02:32:43;5.20;99.90
5086;DHT22;4715;51.660;7.082;2024-03-25T02:35:07;5.20;99.90
5086;DHT22;4715;51.660;7.082;2024-03-25T02:37:30;5.20;99.90
5086;DHT22;4715;51.660;7.082;2024-03-25T02:39:53;5.20;99.90
5086;DHT22;4715;51.660;7.082;2024-03-25T02:42:15;5.10;99.90
5086;DHT22;4715;51.660;7.082;2024-03-25T02:44:38;5.10;99.90
5086;DHT22;4715;51.660;7.082;2024-03-25T02:46:59;5.10;99.90
5086;DHT22;4715;51.660;7.082;2024-03-25T02:49:21;5.10;99.90
5086;DHT22;4715;51.660;7.082;2024-03-25T02:51:42;5.10;99.90
5086;DHT22;4715;51.660;7.082;2024-03-25T02:54:03;5.10;99.90
5086;DHT22;4715;51.660;7.082;2024-03-25T02:56:24;5.10;99.90
5086;DHT22;4715;51.660;7.082;2024-03-25T02:58:46;5.10;99.90
5086;DHT22;4715;51.660;7.082;2024-03-25T03:01:08;5.10;99.90
5086;DHT22;4715;51.660;7.082;2024-03-25T03:03:32;5.10;99.90
5086;DHT22;4715;51.660;7.082;2024-03-25T03:05:53;5.10;99.90
5086;DHT22;4715;51.660;7.082;2024-03-25T03:08:15;5.10;99.90
5086;DHT22;4715;51.660;7.082;2024-03-25T03:10:35;5.10;99.90
5086;DHT22;4715;51.660;7.082;2024-03-25T03:12:57;5.00;99.90
5086;DHT22;4715;51.660;7.082;2024-03-25T03:15:18;5.00;99.90
5086;DHT22;4715;51.660;7.082;2024-03-25T03:17:41;5.00;99.90
5086;DHT22;4715;51.660;7.082;2024-03-25T03:20:02;5.00;99.90
5086;DHT22;4715;51.660;7.082;2024-03-25T03:22:25;4.90;99.90
5086;DHT22;4715;51.660;7.082;2024-03-25T03:24:46;4.90;99.90
5086;DHT22;4715;51.660;7.082;2024-03-25T03:27:08;4.90;99.90
5086;DHT22;4715;51.660;7.082;2024-03-25T03:29:29;4.90;99.90
5086;DHT22;4715;51.660;7.082;2024-03-25T03:31:51;4.80;99.90
5086;DHT22;4715;51.660;7.082;2024-03-25T03:34:13;4.80;99.90
5086;DHT22;4715;51.660;7.082;2024-03-25T03:36:35;4.80;99.90
5086;DHT22;4715;51.660;7.082;2024-03-25T03:38:59;4.70;99.90
5086;DHT22;4715;51.660;7.082;2024-03-25T03:41:21;4.70;99.90
5086;DHT22;4715;51.660;7.082;2024-03-25T03:43:41;4.70;99.90
5086;DHT22;4715;51.660;7.082;2024-03-25T03:46:04;4.70;99.90
5086;DHT22;4715;51.660;7.082;2024-03-25T03:48:25;4.70;99.90
5086;DHT22;4715;51.660;7.082;2024-03-25T03:50:48;4.60;99.90
5086;DHT22;4715;51.660;7.082;2024-03-25T03:53:09;4.60;99.90
5086;DHT22;4715;51.660;7.082;2024-03-25T03:55:30;4.60;99.90
5086;DHT22;4715;51.660;7.082;2024-03-25T03:57:53;4.60;99.90
5086;DHT22;4715;51.660;7.082;2024-03-25T04:00:20;4.50;99.90
5086;DHT22;4715;51.660;7.082;2024-03-25T04:02:41;4.50;99.90
5086;DHT22;4715;51.660;7.082;2024-03-25T04:05:04;4.50;99.90
5086;DHT22;4715;51.660;7.082;2024-03-25T04:07:26;4.50;99.90
5086;DHT22;4715;51.660;7.082;2024-03-25T04:09:50;4.50;99.90
5086;DHT22;4715;51.660;7.082;2024-03-25T04:12:11;4.50;99.90
5086;DHT22;4715;51.660;7.082;2024-03-25T04:14:35;4.40;99.90
5086;DHT22;4715;51.660;7.082;2024-03-25T04:16:56;4.40;99.90
5086;DHT22;4715;51.660;7.082;2024-03-25T04:19:19;4.40;99.90
5086;DHT22;4715;51.660;7.082;2024-03-25T04:21:42;4.40;99.90
5086;DHT22;4715;51.660;7.082;2024-03-25T04:24:05;4.40;99.90
5086;DHT22;4715;51.660;7.082;2024-03-25T04:26:26;4.40;99.90
5086;DHT22;4715;51.660;7.082;2024-03-25T04:28:48;4.40;99.90
5086;DHT22;4715;51.660;7.082;2024-03-25T04:31:10;4.40;99.90
5086;DHT22;4715;51.660;7.082;2024-03-25T04:33:32;4.40;99.90
5086;DHT22;4715;51.660;7.082;2024-03-25T04:35:53;4.40;99.90
5086;DHT22;4715;51.660;7.082;2024-03-25T04:38:16;4.40;99.90
5086;DHT22;4715;51.660;7.082;2024-03-25T04:40:39;4.40;99.90
5086;DHT22;4715;51.660;7.082;2024-03-25T04:43:00;4.40;99.90
5086;DHT22;4715;51.660;7.082;2024-03-25T04:45:21;4.40;99.90
5086;DHT22;4715;51.660;7.082;2024-03-25T04:47:41;4.40;99.90
5086;DHT22;4715;51.660;7.082;2024-03-25T04:50:03;4.40;99.90
5086;DHT22;4715;51.660;7.082;2024-03-25T04:52:24;4.40;99.90
5086;DHT22;4715;51.660;7.082;2024-03-25T04:54:45;4.40;99.90
5086;DHT22;4715;51.660;7.082;2024-03-25T04:57:10;4.40;99.90
5086;DHT22;4715;51.660;7.082;2024-03-25T04:59:31;4.40;99.90
5086;DHT22;4715;51.660;7.082;2024-03-25T05:01:52;4.30;99.90
5086;DHT22;4715;51.660;7.082;2024-03-25T05:04:13;4.40;99.90
5086;DHT22;4715;51.660;7.082;2024-03-25T05:06:34;4.30;99.90
5086;DHT22;4715;51.660;7.082;2024-03-25T05:08:55;4.30;99.90
5086;DHT22;4715;51.660;7.082;2024-03-25T05:11:16;4.30;99.90
5086;DHT22;4715;51.660;7.082;2024-03-25T05:13:38;4.30;99.90
5086;DHT22;4715;51.660;7.082;2024-03-25T05:16:01;4.20;99.90
5086;DHT22;4715;51.660;7.082;2024-03-25T05:18:22;4.20;99.90
5086;DHT22;4715;51.660;7.082;2024-03-25T05:20:43;4.10;99.90
5086;DHT22;4715;51.660;7.082;2024-03-25T05:23:04;4.10;99.90
5086;DHT22;4715;51.660;7.082;2024-03-25T05:25:25;4.10;99.90
5086;DHT22;4715;51.660;7.082;2024-03-25T05:27:46;4.10;99.90
5086;DHT22;4715;51.660;7.082;2024-03-25T05:30:09;4.10;99.90
5086;DHT22;4715;51.660;7.082;2024-03-25T05:32:31;4.10;99.90
5086;DHT22;4715;51.660;7.082;2024-03-25T05:34:54;4.10;99.90
5086;DHT22;4715;51.660;7.082;2024-03-25T05:37:15;4.10;99.90
5086;DHT22;4715;51.660;7.082;2024-03-25T05:39:36;4.10;99.90
5086;DHT22;4715;51.660;7.082;2024-03-25T05:41:57;4.10;99.90
5086;DHT22;4715;51.660;7.082;2024-03-25T05:44:18;4.10;99.90
5086;DHT22;4715;51.660;7.082;2024-03-25T05:46:40;4.20;99.90
5086;DHT22;4715;51.660;7.082;2024-03-25T05:49:02;4.30;99.90
5086;DHT22;4715;51.660;7.082;2024-03-25T05:51:23;4.30;99.90
5086;DHT22;4715;51.660;7.082;2024-03-25T05:53:44;4.30;99.90
5086;DHT22;4715;51.660;7.082;2024-03-25T05:56:05;4.40;99.90
5086;DHT22;4715;51.660;7.082;2024-03-25T05:58:26;4.40;99.90
5086;DHT22;4715;51.660;7.082;2024-03-25T06:00:48;4.40;99.90
5086;DHT22;4715;51.660;7.082;2024-03-25T06:03:10;4.40;99.90
5086;DHT22;4715;51.660;7.082;2024-03-25T06:05:32;4.50;99.90
5086;DHT22;4715;51.660;7.082;2024-03-25T06:07:53;4.50;99.90
5086;DHT22;4715;51.660;7.082;2024-03-25T06:10:14;4.50;99.90
5086;DHT22;4715;51.660;7.082;2024-03-25T06:12:35;4.60;99.90
5086;DHT22;4715;51.660;7.082;2024-03-25T06:14:56;4.70;99.90
5086;DHT22;4715;51.660;7.082;2024-03-25T06:17:17;4.80;99.90
5086;DHT22;4715;51.660;7.082;2024-03-25T06:19:42;4.90;99.90
5086;DHT22;4715;51.660;7.082;2024-03-25T06:22:03;4.90;99.90
5086;DHT22;4715;51.660;7.082;2024-03-25T06:24:24;5.00;99.90
5086;DHT22;4715;51.660;7.082;2024-03-25T06:26:45;5.00;99.90
5086;DHT22;4715;51.660;7.082;2024-03-25T06:29:07;5.00;99.90
5086;DHT22;4715;51.660;7.082;2024-03-25T06:31:29;4.90;99.90
5086;DHT22;4715;51.660;7.082;2024-03-25T06:34:08;4.90;99.90
5086;DHT22;4715;51.660;7.082;2024-03-25T06:36:37;4.80;99.90
5086;DHT22;4715;51.660;7.082;2024-03-25T06:38:58;4.80;99.90
5086;DHT22;4715;51.660;7.082;2024-03-25T06:41:19;4.80;99.90
5086;DHT22;4715;51.660;7.082;2024-03-25T06:43:40;4.90;99.90
5086;DHT22;4715;51.660;7.082;2024-03-25T06:46:02;4.90;99.90
5086;DHT22;4715;51.660;7.082;2024-03-25T06:48:23;5.00;99.90
5086;DHT22;4715;51.660;7.082;2024-03-25T06:50:52;5.00;99.90
5086;DHT22;4715;51.660;7.082;2024-03-25T06:53:15;5.00;99.90
5086;DHT22;4715;51.660;7.082;2024-03-25T06:55:36;5.00;99.90
5086;DHT22;4715;51.660;7.082;2024-03-25T06:57:57;5.00;99.90
5086;DHT22;4715;51.660;7.082;2024-03-25T07:00:19;5.00;99.90
5086;DHT22;4715;51.660;7.082;2024-03-25T07:02:40;5.10;99.90
5086;DHT22;4715;51.660;7.082;2024-03-25T07:05:04;5.10;99.90
5086;DHT22;4715;51.660;7.082;2024-03-25T07:07:25;5.20;99.90
5086;DHT22;4715;51.660;7.082;2024-03-25T07:09:47;5.20;99.90
5086;DHT22;4715;51.660;7.082;2024-03-25T07:12:08;5.30;99.90
5086;DHT22;4715;51.660;7.082;2024-03-25T07:14:30;5.50;99.90
5086;DHT22;4715;51.660;7.082;2024-03-25T07:16:52;5.50;99.90
5086;DHT22;4715;51.660;7.082;2024-03-25T07:19:13;5.60;99.90
5086;DHT22;4715;51.660;7.082;2024-03-25T07:21:34;5.70;99.90
5086;DHT22;4715;51.660;7.082;2024-03-25T07:23:55;5.90;99.90
5086;DHT22;4715;51.660;7.082;2024-03-25T07:26:20;5.90;99.90
5086;DHT22;4715;51.660;7.082;2024-03-25T07:28:41;6.00;99.90
5086;DHT22;4715;51.660;7.082;2024-03-25T07:31:02;6.00;99.90
5086;DHT22;4715;51.660;7.082;2024-03-25T07:33:23;6.00;99.90
5086;DHT22;4715;51.660;7.082;2024-03-25T07:35:48;6.10;99.90
5086;DHT22;4715;51.660;7.082;2024-03-25T07:38:09;6.10;99.90
5086;DHT22;4715;51.660;7.082;2024-03-25T07:40:30;6.20;99.90
5086;DHT22;4715;51.660;7.082;2024-03-25T07:42:53;6.30;99.90
5086;DHT22;4715;51.660;7.082;2024-03-25T07:45:14;6.40;99.90
5086;DHT22;4715;51.660;7.082;2024-03-25T07:47:35;6.40;99.90
5086;DHT22;4715;51.660;7.082;2024-03-25T07:49:58;6.50;99.90
5086;DHT22;4715;51.660;7.082;2024-03-25T07:52:19;6.60;99.90
5086;DHT22;4715;51.660;7.082;2024-03-25T07:54:40;6.60;99.90
5086;DHT22;4715;51.660;7.082;2024-03-25T07:57:01;6.70;99.90
5086;DHT22;4715;51.660;7.082;2024-03-25T07:59:29;6.70;99.90
5086;DHT22;4715;51.660;7.082;2024-03-25T08:01:51;6.80;99.90
5086;DHT22;4715;51.660;7.082;2024-03-25T08:04:12;6.80;99.90
5086;DHT22;4715;51.660;7.082;2024-03-25T08:06:33;6.90;99.90
5086;DHT22;4715;51.660;7.082;2024-03-25T08:08:54;7.10;99.90
5086;DHT22;4715;51.660;7.082;2024-03-25T08:11:15;7.20;99.90
5086;DHT22;4715;51.660;7.082;2024-03-25T08:13:36;7.30;99.90
5086;DHT22;4715;51.660;7.082;2024-03-25T08:15:58;7.40;99.90
5086;DHT22;4715;51.660;7.082;2024-03-25T08:18:19;7.50;99.90
5086;DHT22;4715;51.660;7.082;2024-03-25T08:20:40;7.50;99.90
5086;DHT22;4715;51.660;7.082;2024-03-25T08:23:01;7.60;99.90
5086;DHT22;4715;51.660;7.082;2024-03-25T08:25:22;7.70;99.90
5086;DHT22;4715;51.660;7.082;2024-03-25T08:27:43;7.80;99.90
5086;DHT22;4715;51.660;7.082;2024-03-25T08:30:06;7.80;99.90
5086;DHT22;4715;51.660;7.082;2024-03-25T08:32:29;7.90;99.90
5086;DHT22;4715;51.660;7.082;2024-03-25T08:34:51;8.00;99.90
5086;DHT22;4715;51.660;7.082;2024-03-25T08:37:12;8.10;99.90
5086;DHT22;4715;51.660;7.082;2024-03-25T08:39:33;8.20;99.90
5086;DHT22;4715;51.660;7.082;2024-03-25T08:41:54;8.30;99.90
5086;DHT22;4715;51.660;7.082;2024-03-25T08:44:14;8.40;99.90
5086;DHT22;4715;51.660;7.082;2024-03-25T08:46:39;8.40;99.90
5086;DHT22;4715;51.660;7.082;2024-03-25T08:49:01;8.40;99.90
5086;DHT22;4715;51.660;7.082;2024-03-25T08:51:22;8.50;99.90
5086;DHT22;4715;51.660;7.082;2024-03-25T08:53:43;8.50;99.90
5086;DHT22;4715;51.660;7.082;2024-03-25T08:56:04;8.60;99.90
5086;DHT22;4715;51.660;7.082;2024-03-25T08:58:25;8.60;99.90
5086;DHT22;4715;51.660;7.082;2024-03-25T09:00:46;8.80;99.90
5086;DHT22;4715;51.660;7.082;2024-03-25T09:03:07;8.90;99.90
5086;DHT22;4715;51.660;7.082;2024-03-25T09:05:29;8.90;99.90
5086;DHT22;4715;51.660;7.082;2024-03-25T09:07:51;9.00;99.90
5086;DHT22;4715;51.660;7.082;2024-03-25T09:10:14;9.10;99.90
5086;DHT22;4715;51.660;7.082;2024-03-25T09:12:54;9.10;99.90
5086;DHT22;4715;51.660;7.082;2024-03-25T09:15:15;9.20;99.90
5086;DHT22;4715;51.660;7.082;2024-03-25T09:17:37;9.20;99.90
5086;DHT22;4715;51.660;7.082;2024-03-25T09:19:59;9.20;99.90
5086;DHT22;4715;51.660;7.082;2024-03-25T09:22:21;9.10;99.90
5086;DHT22;4715;51.660;7.082;2024-03-25T09:24:42;9.00;99.90
5086;DHT22;4715;51.660;7.082;2024-03-25T09:27:05;8.90;99.90
5086;DHT22;4715;51.660;7.082;2024-03-25T09:29:27;8.90;99.90
5086;DHT22;4715;51.660;7.082;2024-03-25T09:31:49;9.00;99.90
5086;DHT22;4715;51.660;7.082;2024-03-25T09:34:10;9.00;99.90
5086;DHT22;4715;51.660;7.082;2024-03-25T09:36:31;9.10;99.90
5086;DHT22;4715;51.660;7.082;2024-03-25T09:38:53;9.30;99.90
5086;DHT22;4715;51.660;7.082;2024-03-25T09:41:14;9.30;99.90
5086;DHT22;4715;51.660;7.082;2024-03-25T09:43:43;9.40;99.90
5086;DHT22;4715;51.660;7.082;2024-03-25T09:46:11;9.50;99.90
5086;DHT22;4715;51.660;7.082;2024-03-25T09:48:35;9.50;99.90
5086;DHT22;4715;51.660;7.082;2024-03-25T09:50:56;9.40;99.90
5086;DHT22;4715;51.660;7.082;2024-03-25T09:53:20;9.40;99.90
5086;DHT22;4715;51.660;7.082;2024-03-25T09:55:42;9.40;99.90
5086;DHT22;4715;51.660;7.082;2024-03-25T09:58:05;9.60;99.90
5086;DHT22;4715;51.660;7.082;2024-03-25T10:00:27;9.80;99.90
5086;DHT22;4715;51.660;7.082;2024-03-25T10:02:49;9.80;99.90
5086;DHT22;4715;51.660;7.082;2024-03-25T10:05:15;9.80;99.90
5086;DHT22;4715;51.660;7.082;2024-03-25T10:07:36;9.90;99.90
5086;DHT22;4715;51.660;7.082;2024-03-25T10:09:58;10.10;99.90
5086;DHT22;4715;51.660;7.082;2024-03-25T10:12:25;10.20;99.90
5086;DHT22;4715;51.660;7.082;2024-03-25T10:14:49;10.30;99.90
5086;DHT22;4715;51.660;7.082;2024-03-25T10:17:10;10.40;99.90
5086;DHT22;4715;51.660;7.082;2024-03-25T10:19:33;10.50;99.90
5086;DHT22;4715;51.660;7.082;2024-03-25T10:22:02;10.70;99.90
5086;DHT22;4715;51.660;7.082;2024-03-25T10:24:23;10.80;99.90
5086;DHT22;4715;51.660;7.082;2024-03-25T10:26:44;10.90;99.90
5086;DHT22;4715;51.660;7.082;2024-03-25T10:29:07;10.80;99.90
5086;DHT22;4715;51.660;7.082;2024-03-25T10:31:28;10.60;99.90
5086;DHT22;4715;51.660;7.082;2024-03-25T10:33:49;10.60;99.90
5086;DHT22;4715;51.660;7.082;2024-03-25T10:36:12;10.50;99.90
5086;DHT22;4715;51.660;7.082;2024-03-25T10:38:33;10.50;99.90
5086;DHT22;4715;51.660;7.082;2024-03-25T10:40:57;10.50;99.90
5086;DHT22;4715;51.660;7.082;2024-03-25T10:43:19;10.40;99.90
5086;DHT22;4715;51.660;7.082;2024-03-25T10:45:46;10.40;99.90
5086;DHT22;4715;51.660;7.082;2024-03-25T10:48:12;10.30;99.90
5086;DHT22;4715;51.660;7.082;2024-03-25T10:50:37;10.40;99.90
5086;DHT22;4715;51.660;7.082;2024-03-25T10:52:59;10.40;99.90
5086;DHT22;4715;51.660;7.082;2024-03-25T10:55:21;10.60;99.90
5086;DHT22;4715;51.660;7.082;2024-03-25T10:57:45;10.80;99.90
5086;DHT22;4715;51.660;7.082;2024-03-25T11:00:11;10.90;99.90
5086;DHT22;4715;51.660;7.082;2024-03-25T11:02:34;10.90;99.90
5086;DHT22;4715;51.660;7.082;2024-03-25T11:04:55;10.80;99.90
5086;DHT22;4715;51.660;7.082;2024-03-25T11:07:16;10.80;99.90
5086;DHT22;4715;51.660;7.082;2024-03-25T11:09:37;10.70;99.90
5086;DHT22;4715;51.660;7.082;2024-03-25T11:11:59;10.60;99.90
5086;DHT22;4715;51.660;7.082;2024-03-25T11:14:20;10.60;99.90
5086;DHT22;4715;51.660;7.082;2024-03-25T11:16:41;10.60;99.90
5086;DHT22;4715;51.660;7.082;2024-03-25T11:19:04;10.60;99.90
5086;DHT22;4715;51.660;7.082;2024-03-25T11:21:25;10.60;99.90
5086;DHT22;4715;51.660;7.082;2024-03-25T11:23:46;10.80;99.90
5086;DHT22;4715;51.660;7.082;2024-03-25T11:26:18;10.90;99.90
5086;DHT22;4715;51.660;7.082;2024-03-25T11:28:39;10.90;99.90
5086;DHT22;4715;51.660;7.082;2024-03-25T11:31:00;11.00;99.90
5086;DHT22;4715;51.660;7.082;2024-03-25T11:33:22;11.10;99.90
5086;DHT22;4715;51.660;7.082;2024-03-25T11:35:45;11.20;99.90
5086;DHT22;4715;51.660;7.082;2024-03-25T11:38:10;11.20;99.90
5086;DHT22;4715;51.660;7.082;2024-03-25T11:40:33;11.40;99.90
5086;DHT22;4715;51.660;7.082;2024-03-25T11:42:55;11.60;99.90
5086;DHT22;4715;51.660;7.082;2024-03-25T11:45:19;11.70;99.90
5086;DHT22;4715;51.660;7.082;2024-03-25T11:47:41;11.80;99.90
5086;DHT22;4715;51.660;7.082;2024-03-25T11:50:08;11.80;99.90
5086;DHT22;4715;51.660;7.082;2024-03-25T11:52:33;11.80;99.90
5086;DHT22;4715;51.660;7.082;2024-03-25T11:54:54;11.90;99.90
5086;DHT22;4715;51.660;7.082;2024-03-25T11:57:16;11.80;99.90
5086;DHT22;4715;51.660;7.082;2024-03-25T11:59:36;11.70;99.90
5086;DHT22;4715;51.660;7.082;2024-03-25T12:01:58;11.70;99.90
5086;DHT22;4715;51.660;7.082;2024-03-25T12:04:22;11.80;99.90
5086;DHT22;4715;51.660;7.082;2024-03-25T12:06:43;11.90;99.90
5086;DHT22;4715;51.660;7.082;2024-03-25T12:09:05;12.00;99.90
5086;DHT22;4715;51.660;7.082;2024-03-25T12:11:53;12.00;99.90
5086;DHT22;4715;51.660;7.082;2024-03-25T12:14:15;12.00;99.90
5086;DHT22;4715;51.660;7.082;2024-03-25T12:16:39;11.90;99.90
5086;DHT22;4715;51.660;7.082;2024-03-25T12:19:00;12.00;99.90
5086;DHT22;4715;51.660;7.082;2024-03-25T12:21:21;12.10;99.90
5086;DHT22;4715;51.660;7.082;2024-03-25T12:23:42;12.00;99.90
5086;DHT22;4715;51.660;7.082;2024-03-25T12:26:05;11.80;99.90
5086;DHT22;4715;51.660;7.082;2024-03-25T12:28:26;11.70;99.90
5086;DHT22;4715;51.660;7.082;2024-03-25T12:30:51;11.80;99.90
5086;DHT22;4715;51.660;7.082;2024-03-25T12:33:12;12.00;99.90
5086;DHT22;4715;51.660;7.082;2024-03-25T12:35:35;12.20;99.90
5086;DHT22;4715;51.660;7.082;2024-03-25T12:37:56;12.40;99.90
5086;DHT22;4715;51.660;7.082;2024-03-25T12:40:26;12.40;99.90
5086;DHT22;4715;51.660;7.082;2024-03-25T12:42:52;12.60;99.90
5086;DHT22;4715;51.660;7.082;2024-03-25T12:45:13;12.70;99.90
5086;DHT22;4715;51.660;7.082;2024-03-25T12:47:34;12.90;99.90
5086;DHT22;4715;51.660;7.082;2024-03-25T12:49:55;13.10;99.90
5086;DHT22;4715;51.660;7.082;2024-03-25T12:52:16;13.30;99.90
5086;DHT22;4715;51.660;7.082;2024-03-25T12:54:37;13.40;99.90
5086;DHT22;4715;51.660;7.082;2024-03-25T12:56:58;13.60;99.90
5086;DHT22;4715;51.660;7.082;2024-03-25T12:59:20;13.80;99.90
5086;DHT22;4715;51.660;7.082;2024-03-25T13:01:41;13.90;99.90
5086;DHT22;4715;51.660;7.082;2024-03-25T13:04:03;13.80;99.90
5086;DHT22;4715;51.660;7.082;2024-03-25T13:06:25;13.70;99.90
5086;DHT22;4715;51.660;7.082;2024-03-25T13:08:46;13.70;99.90
5086;DHT22;4715;51.660;7.082;2024-03-25T13:11:07;13.70;99.90
5086;DHT22;4715;51.660;7.082;2024-03-25T13:13:28;13.60;99.90
5086;DHT22;4715;51.660;7.082;2024-03-25T13:15:51;13.50;99.90
5086;DHT22;4715;51.660;7.082;2024-03-25T13:18:12;13.50;99.90
5086;DHT22;4715;51.660;7.082;2024-03-25T13:20:33;13.40;99.90
5086;DHT22;4715;51.660;7.082;2024-03-25T13:22:54;13.30;99.90
5086;DHT22;4715;51.660;7.082;2024-03-25T13:25:16;13.10;99.90
5086;DHT22;4715;51.660;7.082;2024-03-25T13:27:44;12.80;99.90
5086;DHT22;4715;51.660;7.082;2024-03-25T13:30:07;12.70;99.90
5086;DHT22;4715;51.660;7.082;2024-03-25T13:32:30;12.60;99.90
5086;DHT22;4715;51.660;7.082;2024-03-25T13:34:51;12.70;99.90
5086;DHT22;4715;51.660;7.082;2024-03-25T13:37:12;12.90;99.90
5086;DHT22;4715;51.660;7.082;2024-03-25T13:39:35;13.20;99.90
5086;DHT22;4715;51.660;7.082;2024-03-25T13:41:56;13.50;99.90
5086;DHT22;4715;51.660;7.082;2024-03-25T13:44:17;13.70;99.90
5086;DHT22;4715;51.660;7.082;2024-03-25T13:46:40;14.00;99.90
5086;DHT22;4715;51.660;7.082;2024-03-25T13:49:02;14.20;99.90
5086;DHT22;4715;51.660;7.082;2024-03-25T13:51:24;14.40;99.90
5086;DHT22;4715;51.660;7.082;2024-03-25T13:53:45;14.70;99.90
5086;DHT22;4715;51.660;7.082;2024-03-25T13:56:06;15.10;99.90
5086;DHT22;4715;51.660;7.082;2024-03-25T13:58:27;15.30;99.90
5086;DHT22;4715;51.660;7.082;2024-03-25T14:00:48;15.30;99.90
5086;DHT22;4715;51.660;7.082;2024-03-25T14:03:09;15.50;99.90
5086;DHT22;4715;51.660;7.082;2024-03-25T14:05:31;16.00;99.90
5086;DHT22;4715;51.660;7.082;2024-03-25T14:07:55;16.40;99.90
5086;DHT22;4715;51.660;7.082;2024-03-25T14:10:17;16.70;99.90
5086;DHT22;4715;51.660;7.082;2024-03-25T14:12:37;17.00;99.90
5086;DHT22;4715;51.660;7.082;2024-03-25T14:14:58;17.00;99.90
5086;DHT22;4715;51.660;7.082;2024-03-25T14:17:19;16.90;99.90
5086;DHT22;4715;51.660;7.082;2024-03-25T14:19:40;16.60;99.90
5086;DHT22;4715;51.660;7.082;2024-03-25T14:22:02;16.30;99.90
5086;DHT22;4715;51.660;7.082;2024-03-25T14:24:23;16.00;99.90
5086;DHT22;4715;51.660;7.082;2024-03-25T14:26:44;16.20;99.90
5086;DHT22;4715;51.660;7.082;2024-03-25T14:29:05;16.70;99.90
5086;DHT22;4715;51.660;7.082;2024-03-25T14:31:27;17.20;99.90
5086;DHT22;4715;51.660;7.082;2024-03-25T14:33:48;17.70;99.90
5086;DHT22;4715;51.660;7.082;2024-03-25T14:36:09;17.70;99.90
5086;DHT22;4715;51.660;7.082;2024-03-25T14:38:32;17.10;99.90
5086;DHT22;4715;51.660;7.082;2024-03-25T14:40:56;16.50;99.90
5086;DHT22;4715;51.660;7.082;2024-03-25T14:43:18;16.40;99.90
5086;DHT22;4715;51.660;7.082;2024-03-25T14:45:39;16.90;99.90
5086;DHT22;4715;51.660;7.082;2024-03-25T14:48:02;17.70;99.90
5086;DHT22;4715;51.660;7.082;2024-03-25T14:50:23;18.60;99.90
5086;DHT22;4715;51.660;7.082;2024-03-25T14:52:44;19.30;99.90
5086;DHT22;4715;51.660;7.082;2024-03-25T14:55:07;19.60;99.90
5086;DHT22;4715;51.660;7.082;2024-03-25T14:57:29;19.70;99.30
5086;DHT22;4715;51.660;7.082;2024-03-25T14:59:49;19.70;98.40
5086;DHT22;4715;51.660;7.082;2024-03-25T15:02:10;19.70;98.10
5086;DHT22;4715;51.660;7.082;2024-03-25T15:04:32;19.90;98.10
5086;DHT22;4715;51.660;7.082;2024-03-25T15:06:53;20.30;97.70
5086;DHT22;4715;51.660;7.082;2024-03-25T15:09:14;20.40;96.80
5086;DHT22;4715;51.660;7.082;2024-03-25T15:11:36;20.60;96.50
5086;DHT22;4715;51.660;7.082;2024-03-25T15:13:57;20.80;96.10
5086;DHT22;4715;51.660;7.082;2024-03-25T15:16:18;20.80;94.70
5086;DHT22;4715;51.660;7.082;2024-03-25T15:18:40;20.50;94.10
5086;DHT22;4715;51.660;7.082;2024-03-25T15:21:04;20.30;93.30
5086;DHT22;4715;51.660;7.082;2024-03-25T15:23:26;19.80;93.10
5086;DHT22;4715;51.660;7.082;2024-03-25T15:25:47;19.40;93.00
5086;DHT22;4715;51.660;7.082;2024-03-25T15:28:09;19.30;93.10
5086;DHT22;4715;51.660;7.082;2024-03-25T15:30:31;19.40;92.90
5086;DHT22;4715;51.660;7.082;2024-03-25T15:32:55;19.30;92.50
5086;DHT22;4715;51.660;7.082;2024-03-25T15:35:16;19.40;92.90
5086;DHT22;4715;51.660;7.082;2024-03-25T15:37:37;19.50;92.70